sensor_id;sensor_type;location;lat;lon;timestamp;P1;durP1;ratioP1;P2;durP2;ratioP2
44508;SDS011;30214;52.246;14.408;2024-02-21T00:00:29;21.27;;;4.20;;
44508;SDS011;30214;52.246;14.408;2024-02-21T00:02:56;21.92;;;4.32;;
44508;SDS011;30214;52.246;14.408;2024-02-21T00:05:26;19.67;;;3.95;;
44508;SDS011;30214;52.246;14.408;2024-02-21T00:07:53;17.83;;;4.28;;
44508;SDS011;30214;52.246;14.408;2024-02-21T00:10:20;24.02;;;5.00;;
44508;SDS011;30214;52.246;14.408;2024-02-21T00:12:47;18.38;;;3.80;;
44508;SDS011;30214;52.246;14.408;2024-02-21T00:15:14;19.33;;;4.18;;
44508;SDS011;30214;52.246;14.408;2024-02-21T00:17:45;23.27;;;4.22;;
44508;SDS011;30214;52.246;14.408;2024-02-21T00:20:12;20.30;;;4.35;;
44508;SDS011;30214;52.246;14.408;2024-02-21T00:22:40;16.50;;;3.47;;
44508;SDS011;30214;52.246;14.408;2024-02-21T00:25:08;18.63;;;4.10;;
44508;SDS011;30214;52.246;14.408;2024-02-21T00:27:35;18.13;;;4.15;;
44508;SDS011;30214;52.246;14.408;2024-02-21T00:30:02;17.77;;;3.38;;
44508;SDS011;30214;52.246;14.408;2024-02-21T00:32:31;21.77;;;4.20;;
44508;SDS011;30214;52.246;14.408;2024-02-21T00:34:59;15.73;;;4.30;;
44508;SDS011;30214;52.246;14.408;2024-02-21T00:37:27;20.92;;;4.13;;
44508;SDS011;30214;52.246;14.408;2024-02-21T00:39:55;14.45;;;3.80;;
44508;SDS011;30214;52.246;14.408;2024-02-21T00:42:22;18.77;;;4.55;;
44508;SDS011;30214;52.246;14.408;2024-02-21T00:44:49;23.20;;;4.60;;
44508;SDS011;30214;52.246;14.408;2024-02-21T00:47:17;16.08;;;4.55;;
44508;SDS011;30214;52.246;14.408;2024-02-21T00:49:44;16.10;;;3.60;;
44508;SDS011;30214;52.246;14.408;2024-02-21T00:52:11;20.63;;;4.30;;
44508;SDS011;30214;52.246;14.408;2024-02-21T00:54:41;16.65;;;4.22;;
44508;SDS011;30214;52.246;14.408;2024-02-21T00:57:10;24.50;;;5.75;;
44508;SDS011;30214;52.246;14.408;2024-02-21T00:59:37;17.23;;;4.82;;
44508;SDS011;30214;52.246;14.408;2024-02-21T01:02:04;17.60;;;4.03;;
44508;SDS011;30214;52.246;14.408;2024-02-21T01:04:31;21.25;;;4.43;;
44508;SDS011;30214;52.246;14.408;2024-02-21T01:07:00;22.38;;;4.75;;
44508;SDS011;30214;52.246;14.408;2024-02-21T01:09:28;19.67;;;4.57;;
44508;SDS011;30214;52.246;14.408;2024-02-21T01:11:55;20.30;;;4.43;;
44508;SDS011;30214;52.246;14.408;2024-02-21T01:14:23;19.85;;;4.57;;
44508;SDS011;30214;52.246;14.408;2024-02-21T01:16:50;18.05;;;4.30;;
44508;SDS011;30214;52.246;14.408;2024-02-21T01:19:18;20.45;;;4.25;;
44508;SDS011;30214;52.246;14.408;2024-02-21T01:21:45;17.13;;;4.22;;
44508;SDS011;30214;52.246;14.408;2024-02-21T01:24:12;19.55;;;4.10;;
44508;SDS011;30214;52.246;14.408;2024-02-21T01:26:42;18.92;;;4.65;;
44508;SDS011;30214;52.246;14.408;2024-02-21T01:29:09;19.35;;;4.32;;
44508;SDS011;30214;52.246;14.408;2024-02-21T01:31:38;21.42;;;4.38;;
44508;SDS011;30214;52.246;14.408;2024-02-21T01:34:05;22.20;;;4.95;;
44508;SDS011;30214;52.246;14.408;2024-02-21T01:36:32;17.00;;;4.15;;
44508;SDS011;30214;52.246;14.408;2024-02-21T01:39:00;20.27;;;4.90;;
44508;SDS011;30214;52.246;14.408;2024-02-21T01:41:29;17.10;;;4.22;;
44508;SDS011;30214;52.246;14.408;2024-02-21T01:43:56;25.23;;;5.30;;
44508;SDS011;30214;52.246;14.408;2024-02-21T01:46:24;11.38;;;3.85;;
44508;SDS011;30214;52.246;14.408;2024-02-21T01:48:55;17.38;;;3.92;;
44508;SDS011;30214;52.246;14.408;2024-02-21T01:51:23;18.10;;;4.90;;
44508;SDS011;30214;52.246;14.408;2024-02-21T01:53:51;14.32;;;4.07;;
44508;SDS011;30214;52.246;14.408;2024-02-21T01:56:19;17.20;;;4.63;;
44508;SDS011;30214;52.246;14.408;2024-02-21T01:58:47;18.70;;;4.60;;
44508;SDS011;30214;52.246;14.408;2024-02-21T02:01:15;14.82;;;3.97;;
44508;SDS011;30214;52.246;14.408;2024-02-21T02:03:44;23.00;;;5.53;;
44508;SDS011;30214;52.246;14.408;2024-02-21T02:06:14;17.48;;;4.72;;
44508;SDS011;30214;52.246;14.408;2024-02-21T02:08:41;17.55;;;4.78;;
44508;SDS011;30214;52.246;14.408;2024-02-21T02:11:09;14.60;;;4.68;;
44508;SDS011;30214;52.246;14.408;2024-02-21T02:13:37;21.30;;;4.55;;
44508;SDS011;30214;52.246;14.408;2024-02-21T02:16:04;19.98;;;4.95;;
44508;SDS011;30214;52.246;14.408;2024-02-21T02:18:32;19.77;;;5.10;;
44508;SDS011;30214;52.246;14.408;2024-02-21T02:21:03;25.88;;;5.57;;
44508;SDS011;30214;52.246;14.408;2024-02-21T02:23:38;20.58;;;5.72;;
44508;SDS011;30214;52.246;14.408;2024-02-21T02:26:05;21.88;;;6.43;;
44508;SDS011;30214;52.246;14.408;2024-02-21T02:28:32;17.38;;;5.05;;
44508;SDS011;30214;52.246;14.408;2024-02-21T02:31:00;19.77;;;5.78;;
44508;SDS011;30214;52.246;14.408;2024-02-21T02:33:27;20.88;;;5.53;;
44508;SDS011;30214;52.246;14.408;2024-02-21T02:35:54;21.45;;;6.03;;
44508;SDS011;30214;52.246;14.408;2024-02-21T02:38:21;16.60;;;4.70;;
44508;SDS011;30214;52.246;14.408;2024-02-21T02:40:49;26.48;;;7.22;;
44508;SDS011;30214;52.246;14.408;2024-02-21T02:43:16;17.20;;;5.72;;
44508;SDS011;30214;52.246;14.408;2024-02-21T02:45:44;24.98;;;5.93;;
44508;SDS011;30214;52.246;14.408;2024-02-21T02:48:11;19.60;;;5.25;;
44508;SDS011;30214;52.246;14.408;2024-02-21T02:50:38;26.20;;;6.30;;
44508;SDS011;30214;52.246;14.408;2024-02-21T02:53:05;25.55;;;5.07;;
44508;SDS011;30214;52.246;14.408;2024-02-21T02:55:32;18.05;;;5.55;;
44508;SDS011;30214;52.246;14.408;2024-02-21T02:58:02;26.52;;;6.53;;
44508;SDS011;30214;52.246;14.408;2024-02-21T03:00:29;19.00;;;5.80;;
44508;SDS011;30214;52.246;14.408;2024-02-21T03:03:01;18.45;;;5.18;;
44508;SDS011;30214;52.246;14.408;2024-02-21T03:05:29;21.83;;;5.68;;
44508;SDS011;30214;52.246;14.408;2024-02-21T03:07:56;19.52;;;5.28;;
44508;SDS011;30214;52.246;14.408;2024-02-21T03:10:24;21.05;;;5.22;;
44508;SDS011;30214;52.246;14.408;2024-02-21T03:12:51;16.90;;;5.07;;
44508;SDS011;30214;52.246;14.408;2024-02-21T03:15:20;18.40;;;5.18;;
44508;SDS011;30214;52.246;14.408;2024-02-21T03:17:47;19.05;;;4.35;;
44508;SDS011;30214;52.246;14.408;2024-02-21T03:20:15;17.30;;;4.95;;
44508;SDS011;30214;52.246;14.408;2024-02-21T03:22:42;19.23;;;4.18;;
44508;SDS011;30214;52.246;14.408;2024-02-21T03:25:09;20.25;;;4.50;;
44508;SDS011;30214;52.246;14.408;2024-02-21T03:27:37;18.58;;;4.63;;
44508;SDS011;30214;52.246;14.408;2024-02-21T03:30:05;16.85;;;4.75;;
44508;SDS011;30214;52.246;14.408;2024-02-21T03:32:35;16.77;;;4.25;;
44508;SDS011;30214;52.246;14.408;2024-02-21T03:35:04;17.63;;;4.50;;
44508;SDS011;30214;52.246;14.408;2024-02-21T03:37:32;17.67;;;5.00;;
44508;SDS011;30214;52.246;14.408;2024-02-21T03:39:59;24.52;;;4.88;;
44508;SDS011;30214;52.246;14.408;2024-02-21T03:42:27;14.68;;;4.25;;
44508;SDS011;30214;52.246;14.408;2024-02-21T03:44:56;20.27;;;4.60;;
44508;SDS011;30214;52.246;14.408;2024-02-21T03:47:23;19.27;;;5.05;;
44508;SDS011;30214;52.246;14.408;2024-02-21T03:49:52;19.67;;;5.00;;
44508;SDS011;30214;52.246;14.408;2024-02-21T03:52:20;22.73;;;5.63;;
44508;SDS011;30214;52.246;14.408;2024-02-21T03:54:47;19.33;;;5.70;;
44508;SDS011;30214;52.246;14.408;2024-02-21T03:57:14;20.42;;;5.22;;
44508;SDS011;30214;52.246;14.408;2024-02-21T03:59:42;21.83;;;6.68;;
44508;SDS011;30214;52.246;14.408;2024-02-21T04:02:09;17.63;;;5.93;;
44508;SDS011;30214;52.246;14.408;2024-02-21T04:04:36;21.33;;;5.95;;
44508;SDS011;30214;52.246;14.408;2024-02-21T04:07:06;19.63;;;5.15;;
44508;SDS011;30214;52.246;14.408;2024-02-21T04:09:33;15.40;;;5.03;;
44508;SDS011;30214;52.246;14.408;2024-02-21T04:12:00;20.23;;;5.35;;
44508;SDS011;30214;52.246;14.408;2024-02-21T04:14:28;23.08;;;6.25;;
44508;SDS011;30214;52.246;14.408;2024-02-21T04:16:55;13.73;;;4.85;;
44508;SDS011;30214;52.246;14.408;2024-02-21T04:19:23;21.77;;;4.60;;
44508;SDS011;30214;52.246;14.408;2024-02-21T04:21:50;17.38;;;4.38;;
44508;SDS011;30214;52.246;14.408;2024-02-21T04:24:19;22.58;;;4.10;;
44508;SDS011;30214;52.246;14.408;2024-02-21T04:26:46;16.70;;;4.35;;
44508;SDS011;30214;52.246;14.408;2024-02-21T04:29:13;26.13;;;4.57;;
44508;SDS011;30214;52.246;14.408;2024-02-21T04:31:40;20.92;;;4.43;;
44508;SDS011;30214;52.246;14.408;2024-02-21T04:34:07;21.17;;;4.18;;
44508;SDS011;30214;52.246;14.408;2024-02-21T04:36:34;14.23;;;4.47;;
44508;SDS011;30214;52.246;14.408;2024-02-21T04:39:01;16.80;;;4.18;;
44508;SDS011;30214;52.246;14.408;2024-02-21T04:41:30;18.23;;;4.40;;
44508;SDS011;30214;52.246;14.408;2024-02-21T04:43:57;16.00;;;5.03;;
44508;SDS011;30214;52.246;14.408;2024-02-21T04:46:25;13.80;;;4.00;;
44508;SDS011;30214;52.246;14.408;2024-02-21T04:48:52;19.25;;;4.38;;
44508;SDS011;30214;52.246;14.408;2024-02-21T04:51:19;16.05;;;4.82;;
44508;SDS011;30214;52.246;14.408;2024-02-21T04:53:46;21.38;;;4.88;;
44508;SDS011;30214;52.246;14.408;2024-02-21T04:56:16;15.93;;;4.32;;
44508;SDS011;30214;52.246;14.408;2024-02-21T04:58:45;20.27;;;4.65;;
44508;SDS011;30214;52.246;14.408;2024-02-21T05:01:12;20.50;;;4.85;;
44508;SDS011;30214;52.246;14.408;2024-02-21T05:03:39;23.65;;;4.70;;
44508;SDS011;30214;52.246;14.408;2024-02-21T05:06:06;21.25;;;5.00;;
44508;SDS011;30214;52.246;14.408;2024-02-21T05:08:33;19.85;;;4.80;;
44508;SDS011;30214;52.246;14.408;2024-02-21T05:11:03;17.95;;;5.22;;
44508;SDS011;30214;52.246;14.408;2024-02-21T05:13:30;27.33;;;6.00;;
44508;SDS011;30214;52.246;14.408;2024-02-21T05:15:59;19.70;;;4.65;;
44508;SDS011;30214;52.246;14.408;2024-02-21T05:18:28;19.48;;;4.10;;
44508;SDS011;30214;52.246;14.408;2024-02-21T05:20:55;15.77;;;4.22;;
44508;SDS011;30214;52.246;14.408;2024-02-21T05:23:22;16.40;;;4.43;;
44508;SDS011;30214;52.246;14.408;2024-02-21T05:25:49;16.30;;;3.95;;
44508;SDS011;30214;52.246;14.408;2024-02-21T05:28:16;14.32;;;4.53;;
44508;SDS011;30214;52.246;14.408;2024-02-21T05:30:43;24.70;;;4.95;;
44508;SDS011;30214;52.246;14.408;2024-02-21T05:33:12;21.30;;;5.18;;
44508;SDS011;30214;52.246;14.408;2024-02-21T05:35:46;19.63;;;5.18;;
44508;SDS011;30214;52.246;14.408;2024-02-21T05:38:14;22.23;;;5.15;;
44508;SDS011;30214;52.246;14.408;2024-02-21T05:40:41;13.15;;;4.32;;
44508;SDS011;30214;52.246;14.408;2024-02-21T05:43:08;15.95;;;4.60;;
44508;SDS011;30214;52.246;14.408;2024-02-21T05:45:36;17.10;;;4.30;;
44508;SDS011;30214;52.246;14.408;2024-02-21T05:48:07;20.42;;;5.53;;
44508;SDS011;30214;52.246;14.408;2024-02-21T05:50:35;17.05;;;4.32;;
44508;SDS011;30214;52.246;14.408;2024-02-21T05:53:03;17.08;;;4.53;;
44508;SDS011;30214;52.246;14.408;2024-02-21T05:55:30;16.10;;;4.60;;
44508;SDS011;30214;52.246;14.408;2024-02-21T05:57:57;18.60;;;4.70;;
44508;SDS011;30214;52.246;14.408;2024-02-21T06:00:28;17.25;;;4.90;;
44508;SDS011;30214;52.246;14.408;2024-02-21T06:02:55;16.02;;;4.03;;
44508;SDS011;30214;52.246;14.408;2024-02-21T06:05:22;17.75;;;4.50;;
44508;SDS011;30214;52.246;14.408;2024-02-21T06:07:51;14.82;;;4.03;;
44508;SDS011;30214;52.246;14.408;2024-02-21T06:10:18;20.40;;;5.43;;
44508;SDS011;30214;52.246;14.408;2024-02-21T06:12:45;18.13;;;5.30;;
44508;SDS011;30214;52.246;14.408;2024-02-21T06:15:12;15.32;;;4.60;;
44508;SDS011;30214;52.246;14.408;2024-02-21T06:17:39;13.60;;;4.82;;
44508;SDS011;30214;52.246;14.408;2024-02-21T06:20:07;19.10;;;4.88;;
44508;SDS011;30214;52.246;14.408;2024-02-21T06:22:35;15.40;;;4.18;;
44508;SDS011;30214;52.246;14.408;2024-02-21T06:25:04;19.13;;;5.22;;
44508;SDS011;30214;52.246;14.408;2024-02-21T06:27:32;15.55;;;4.32;;
44508;SDS011;30214;52.246;14.408;2024-02-21T06:29:59;17.55;;;5.00;;
44508;SDS011;30214;52.246;14.408;2024-02-21T06:32:28;21.50;;;4.70;;
44508;SDS011;30214;52.246;14.408;2024-02-21T06:34:55;15.82;;;4.68;;
44508;SDS011;30214;52.246;14.408;2024-02-21T06:37:22;13.40;;;4.60;;
44508;SDS011;30214;52.246;14.408;2024-02-21T06:39:49;15.63;;;4.20;;
44508;SDS011;30214;52.246;14.408;2024-02-21T06:42:20;19.05;;;5.03;;
44508;SDS011;30214;52.246;14.408;2024-02-21T06:44:48;13.93;;;4.65;;
44508;SDS011;30214;52.246;14.408;2024-02-21T06:47:15;15.95;;;4.70;;
44508;SDS011;30214;52.246;14.408;2024-02-21T06:49:42;14.52;;;4.25;;
44508;SDS011;30214;52.246;14.408;2024-02-21T06:52:11;20.05;;;4.82;;
44508;SDS011;30214;52.246;14.408;2024-02-21T06:54:41;19.23;;;4.55;;
44508;SDS011;30214;52.246;14.408;2024-02-21T06:57:08;20.70;;;5.10;;
44508;SDS011;30214;52.246;14.408;2024-02-21T06:59:37;17.48;;;5.13;;
44508;SDS011;30214;52.246;14.408;2024-02-21T07:02:04;17.20;;;4.85;;
44508;SDS011;30214;52.246;14.408;2024-02-21T07:04:32;19.13;;;5.00;;
44508;SDS011;30214;52.246;14.408;2024-02-21T07:06:59;19.67;;;5.03;;
44508;SDS011;30214;52.246;14.408;2024-02-21T07:09:27;16.55;;;4.25;;
44508;SDS011;30214;52.246;14.408;2024-02-21T07:11:57;18.13;;;6.30;;
44508;SDS011;30214;52.246;14.408;2024-02-21T07:14:24;20.75;;;5.65;;
44508;SDS011;30214;52.246;14.408;2024-02-21T07:16:53;15.80;;;5.00;;
44508;SDS011;30214;52.246;14.408;2024-02-21T07:19:22;16.42;;;5.57;;
44508;SDS011;30214;52.246;14.408;2024-02-21T07:21:49;19.27;;;4.95;;
44508;SDS011;30214;52.246;14.408;2024-02-21T07:24:18;20.17;;;5.00;;
44508;SDS011;30214;52.246;14.408;2024-02-21T07:26:46;14.13;;;4.72;;
44508;SDS011;30214;52.246;14.408;2024-02-21T07:29:13;19.95;;;5.60;;
44508;SDS011;30214;52.246;14.408;2024-02-21T07:31:41;17.00;;;5.00;;
44508;SDS011;30214;52.246;14.408;2024-02-21T07:34:11;13.80;;;4.82;;
44508;SDS011;30214;52.246;14.408;2024-02-21T07:36:38;16.10;;;5.88;;
44508;SDS011;30214;52.246;14.408;2024-02-21T07:39:07;14.15;;;4.50;;
44508;SDS011;30214;52.246;14.408;2024-02-21T07:41:34;17.08;;;4.47;;
44508;SDS011;30214;52.246;14.408;2024-02-21T07:44:04;19.52;;;5.97;;
44508;SDS011;30214;52.246;14.408;2024-02-21T07:46:32;20.27;;;5.18;;
44508;SDS011;30214;52.246;14.408;2024-02-21T07:49:00;19.33;;;4.63;;
44508;SDS011;30214;52.246;14.408;2024-02-21T07:51:29;13.82;;;5.00;;
44508;SDS011;30214;52.246;14.408;2024-02-21T07:53:56;19.38;;;4.97;;
44508;SDS011;30214;52.246;14.408;2024-02-21T07:56:27;16.27;;;4.10;;
44508;SDS011;30214;52.246;14.408;2024-02-21T07:58:55;16.63;;;5.22;;
44508;SDS011;30214;52.246;14.408;2024-02-21T08:01:22;15.20;;;4.80;;
44508;SDS011;30214;52.246;14.408;2024-02-21T08:03:49;18.63;;;4.63;;
44508;SDS011;30214;52.246;14.408;2024-02-21T08:06:16;20.13;;;5.82;;
44508;SDS011;30214;52.246;14.408;2024-02-21T08:08:45;14.60;;;5.15;;
44508;SDS011;30214;52.246;14.408;2024-02-21T08:11:12;22.10;;;5.85;;
44508;SDS011;30214;52.246;14.408;2024-02-21T08:13:40;18.83;;;5.45;;
44508;SDS011;30214;52.246;14.408;2024-02-21T08:16:07;15.30;;;5.45;;
44508;SDS011;30214;52.246;14.408;2024-02-21T08:18:34;14.73;;;5.05;;
44508;SDS011;30214;52.246;14.408;2024-02-21T08:21:03;22.95;;;5.50;;
44508;SDS011;30214;52.246;14.408;2024-02-21T08:23:31;12.57;;;4.57;;
44508;SDS011;30214;52.246;14.408;2024-02-21T08:26:02;16.60;;;5.30;;
44508;SDS011;30214;52.246;14.408;2024-02-21T08:28:30;16.85;;;5.22;;
44508;SDS011;30214;52.246;14.408;2024-02-21T08:30:57;18.67;;;5.22;;
44508;SDS011;30214;52.246;14.408;2024-02-21T08:33:28;14.55;;;4.53;;
44508;SDS011;30214;52.246;14.408;2024-02-21T08:35:56;17.55;;;5.13;;
44508;SDS011;30214;52.246;14.408;2024-02-21T08:38:23;17.45;;;5.22;;
44508;SDS011;30214;52.246;14.408;2024-02-21T08:40:51;19.67;;;5.80;;
44508;SDS011;30214;52.246;14.408;2024-02-21T08:43:20;18.45;;;5.72;;
44508;SDS011;30214;52.246;14.408;2024-02-21T08:45:47;14.52;;;5.97;;
44508;SDS011;30214;52.246;14.408;2024-02-21T08:48:16;15.93;;;5.35;;
44508;SDS011;30214;52.246;14.408;2024-02-21T08:50:43;22.55;;;5.65;;
44508;SDS011;30214;52.246;14.408;2024-02-21T08:53:10;19.00;;;5.53;;
44508;SDS011;30214;52.246;14.408;2024-02-21T08:55:39;20.45;;;5.47;;
44508;SDS011;30214;52.246;14.408;2024-02-21T08:58:06;18.70;;;5.30;;
44508;SDS011;30214;52.246;14.408;2024-02-21T09:00:35;15.63;;;5.45;;
44508;SDS011;30214;52.246;14.408;2024-02-21T09:03:02;19.35;;;6.03;;
44508;SDS011;30214;52.246;14.408;2024-02-21T09:05:30;15.18;;;5.78;;
44508;SDS011;30214;52.246;14.408;2024-02-21T09:08:00;19.48;;;6.28;;
44508;SDS011;30214;52.246;14.408;2024-02-21T09:10:28;21.58;;;6.45;;
44508;SDS011;30214;52.246;14.408;2024-02-21T09:12:56;18.77;;;6.43;;
44508;SDS011;30214;52.246;14.408;2024-02-21T09:15:23;15.90;;;6.57;;
44508;SDS011;30214;52.246;14.408;2024-02-21T09:17:53;20.63;;;6.28;;
44508;SDS011;30214;52.246;14.408;2024-02-21T09:20:20;16.38;;;6.53;;
44508;SDS011;30214;52.246;14.408;2024-02-21T09:22:47;21.60;;;7.22;;
44508;SDS011;30214;52.246;14.408;2024-02-21T09:25:14;20.55;;;6.68;;
44508;SDS011;30214;52.246;14.408;2024-02-21T09:27:43;25.02;;;10.48;;
44508;SDS011;30214;52.246;14.408;2024-02-21T09:30:11;25.02;;;10.27;;
44508;SDS011;30214;52.246;14.408;2024-02-21T09:32:39;19.38;;;7.38;;
44508;SDS011;30214;52.246;14.408;2024-02-21T09:35:08;20.52;;;7.55;;
44508;SDS011;30214;52.246;14.408;2024-02-21T09:37:37;22.80;;;7.03;;
44508;SDS011;30214;52.246;14.408;2024-02-21T09:40:06;16.50;;;5.95;;
44508;SDS011;30214;52.246;14.408;2024-02-21T09:42:38;18.95;;;7.05;;
44508;SDS011;30214;52.246;14.408;2024-02-21T09:45:07;20.02;;;7.28;;
44508;SDS011;30214;52.246;14.408;2024-02-21T09:47:44;23.73;;;7.60;;
44508;SDS011;30214;52.246;14.408;2024-02-21T09:50:25;25.02;;;7.53;;
44508;SDS011;30214;52.246;14.408;2024-02-21T09:52:53;22.13;;;7.53;;
44508;SDS011;30214;52.246;14.408;2024-02-21T09:55:22;24.38;;;7.88;;
44508;SDS011;30214;52.246;14.408;2024-02-21T09:57:50;19.65;;;7.60;;
44508;SDS011;30214;52.246;14.408;2024-02-21T10:00:19;22.38;;;7.60;;
44508;SDS011;30214;52.246;14.408;2024-02-21T10:02:50;16.20;;;7.03;;
44508;SDS011;30214;52.246;14.408;2024-02-21T10:05:17;20.58;;;6.68;;
44508;SDS011;30214;52.246;14.408;2024-02-21T10:07:46;19.10;;;6.80;;
44508;SDS011;30214;52.246;14.408;2024-02-21T10:10:15;22.63;;;6.80;;
44508;SDS011;30214;52.246;14.408;2024-02-21T10:12:50;21.00;;;6.70;;
44508;SDS011;30214;52.246;14.408;2024-02-21T10:15:20;17.65;;;6.72;;
44508;SDS011;30214;52.246;14.408;2024-02-21T10:17:48;19.15;;;7.03;;
44508;SDS011;30214;52.246;14.408;2024-02-21T10:20:16;18.55;;;6.85;;
44508;SDS011;30214;52.246;14.408;2024-02-21T10:22:43;21.63;;;6.90;;
44508;SDS011;30214;52.246;14.408;2024-02-21T10:25:12;18.83;;;7.18;;
44508;SDS011;30214;52.246;14.408;2024-02-21T10:27:40;17.30;;;6.45;;
44508;SDS011;30214;52.246;14.408;2024-02-21T10:30:12;19.20;;;7.10;;
44508;SDS011;30214;52.246;14.408;2024-02-21T10:32:48;16.63;;;6.55;;
44508;SDS011;30214;52.246;14.408;2024-02-21T10:35:25;17.50;;;6.40;;
44508;SDS011;30214;52.246;14.408;2024-02-21T10:37:58;19.77;;;7.03;;
44508;SDS011;30214;52.246;14.408;2024-02-21T10:40:28;18.92;;;6.45;;
44508;SDS011;30214;52.246;14.408;2024-02-21T10:43:18;16.70;;;7.10;;
44508;SDS011;30214;52.246;14.408;2024-02-21T10:45:47;17.05;;;7.70;;
44508;SDS011;30214;52.246;14.408;2024-02-21T10:48:15;21.58;;;6.80;;
44508;SDS011;30214;52.246;14.408;2024-02-21T10:50:53;17.40;;;7.55;;
44508;SDS011;30214;52.246;14.408;2024-02-21T10:53:44;17.63;;;6.63;;
44508;SDS011;30214;52.246;14.408;2024-02-21T10:56:22;18.73;;;6.13;;
44508;SDS011;30214;52.246;14.408;2024-02-21T10:58:53;14.57;;;6.90;;
44508;SDS011;30214;52.246;14.408;2024-02-21T11:01:22;19.85;;;7.03;;
44508;SDS011;30214;52.246;14.408;2024-02-21T11:03:52;19.52;;;6.78;;
44508;SDS011;30214;52.246;14.408;2024-02-21T11:06:22;15.90;;;6.53;;
44508;SDS011;30214;52.246;14.408;2024-02-21T11:09:03;14.00;;;6.15;;
44508;SDS011;30214;52.246;14.408;2024-02-21T11:11:37;16.80;;;7.85;;
44508;SDS011;30214;52.246;14.408;2024-02-21T11:16:37;12.85;;;5.70;;
44508;SDS011;30214;52.246;14.408;2024-02-21T11:19:07;15.70;;;6.10;;
44508;SDS011;30214;52.246;14.408;2024-02-21T11:21:36;14.13;;;5.53;;
44508;SDS011;30214;52.246;14.408;2024-02-21T11:24:13;15.18;;;5.15;;
44508;SDS011;30214;52.246;14.408;2024-02-21T11:26:42;15.75;;;5.15;;
44508;SDS011;30214;52.246;14.408;2024-02-21T11:29:09;14.32;;;5.75;;
44508;SDS011;30214;52.246;14.408;2024-02-21T11:31:39;17.30;;;5.43;;
44508;SDS011;30214;52.246;14.408;2024-02-21T11:34:10;11.68;;;5.15;;
44508;SDS011;30214;52.246;14.408;2024-02-21T11:36:46;17.50;;;5.35;;
44508;SDS011;30214;52.246;14.408;2024-02-21T11:39:18;13.98;;;5.32;;
44508;SDS011;30214;52.246;14.408;2024-02-21T11:42:04;15.15;;;5.53;;
44508;SDS011;30214;52.246;14.408;2024-02-21T11:44:33;12.57;;;5.38;;
44508;SDS011;30214;52.246;14.408;2024-02-21T11:47:03;17.20;;;5.22;;
44508;SDS011;30214;52.246;14.408;2024-02-21T11:49:31;13.95;;;5.90;;
44508;SDS011;30214;52.246;14.408;2024-02-21T11:52:04;15.33;;;6.47;;
44508;SDS011;30214;52.246;14.408;2024-02-21T11:54:32;14.80;;;6.10;;
44508;SDS011;30214;52.246;14.408;2024-02-21T11:57:00;10.55;;;4.55;;
44508;SDS011;30214;52.246;14.408;2024-02-21T11:59:31;12.57;;;4.68;;
44508;SDS011;30214;52.246;14.408;2024-02-21T12:01:59;11.68;;;5.28;;
44508;SDS011;30214;52.246;14.408;2024-02-21T12:04:30;10.93;;;5.05;;
44508;SDS011;30214;52.246;14.408;2024-02-21T12:06:58;12.05;;;4.65;;
44508;SDS011;30214;52.246;14.408;2024-02-21T12:09:28;10.85;;;5.10;;
44508;SDS011;30214;52.246;14.408;2024-02-21T12:11:57;17.98;;;5.88;;
44508;SDS011;30214;52.246;14.408;2024-02-21T12:14:27;11.82;;;5.10;;
44508;SDS011;30214;52.246;14.408;2024-02-21T12:16:57;14.63;;;4.35;;
44508;SDS011;30214;52.246;14.408;2024-02-21T12:19:30;13.80;;;4.95;;
44508;SDS011;30214;52.246;14.408;2024-02-21T12:21:58;11.82;;;5.22;;
44508;SDS011;30214;52.246;14.408;2024-02-21T12:24:27;11.88;;;5.50;;
44508;SDS011;30214;52.246;14.408;2024-02-21T12:26:56;9.55;;;4.82;;
44508;SDS011;30214;52.246;14.408;2024-02-21T12:29:30;9.98;;;4.35;;
44508;SDS011;30214;52.246;14.408;2024-02-21T12:31:59;11.95;;;4.88;;
44508;SDS011;30214;52.246;14.408;2024-02-21T12:34:26;8.25;;;3.83;;
44508;SDS011;30214;52.246;14.408;2024-02-21T12:36:57;13.65;;;5.18;;
44508;SDS011;30214;52.246;14.408;2024-02-21T12:39:25;11.63;;;4.65;;
44508;SDS011;30214;52.246;14.408;2024-02-21T12:41:53;10.63;;;5.15;;
44508;SDS011;30214;52.246;14.408;2024-02-21T12:44:22;10.18;;;4.50;;
44508;SDS011;30214;52.246;14.408;2024-02-21T12:46:49;11.60;;;4.63;;
44508;SDS011;30214;52.246;14.408;2024-02-21T12:49:21;10.88;;;4.28;;
44508;SDS011;30214;52.246;14.408;2024-02-21T12:51:49;12.68;;;4.57;;
44508;SDS011;30214;52.246;14.408;2024-02-21T12:54:16;12.02;;;5.40;;
44508;SDS011;30214;52.246;14.408;2024-02-21T12:56:47;13.70;;;4.45;;
44508;SDS011;30214;52.246;14.408;2024-02-21T12:59:15;12.40;;;4.20;;
44508;SDS011;30214;52.246;14.408;2024-02-21T13:01:42;17.75;;;4.43;;
44508;SDS011;30214;52.246;14.408;2024-02-21T13:04:09;10.00;;;3.95;;
44508;SDS011;30214;52.246;14.408;2024-02-21T13:06:38;10.07;;;4.25;;
44508;SDS011;30214;52.246;14.408;2024-02-21T13:09:05;14.50;;;4.70;;
44508;SDS011;30214;52.246;14.408;2024-02-21T13:11:36;7.20;;;3.63;;
44508;SDS011;30214;52.246;14.408;2024-02-21T13:14:03;11.63;;;4.05;;
44508;SDS011;30214;52.246;14.408;2024-02-21T13:16:30;14.07;;;4.20;;
44508;SDS011;30214;52.246;14.408;2024-02-21T13:18:59;8.55;;;3.88;;
44508;SDS011;30214;52.246;14.408;2024-02-21T13:21:26;8.45;;;4.32;;
44508;SDS011;30214;52.246;14.408;2024-02-21T13:23:55;11.77;;;4.05;;
44508;SDS011;30214;52.246;14.408;2024-02-21T13:26:22;20.33;;;6.07;;
44508;SDS011;30214;52.246;14.408;2024-02-21T13:28:49;12.25;;;4.85;;
44508;SDS011;30214;52.246;14.408;2024-02-21T13:31:16;9.65;;;3.80;;
44508;SDS011;30214;52.246;14.408;2024-02-21T13:33:47;12.85;;;4.35;;
44508;SDS011;30214;52.246;14.408;2024-02-21T13:36:14;11.60;;;4.90;;
44508;SDS011;30214;52.246;14.408;2024-02-21T13:38:41;13.93;;;5.63;;
44508;SDS011;30214;52.246;14.408;2024-02-21T13:41:10;14.48;;;6.45;;
44508;SDS011;30214;52.246;14.408;2024-02-21T13:43:37;9.85;;;4.60;;
44508;SDS011;30214;52.246;14.408;2024-02-21T13:46:04;9.98;;;4.60;;
44508;SDS011;30214;52.246;14.408;2024-02-21T13:48:34;12.98;;;5.07;;
44508;SDS011;30214;52.246;14.408;2024-02-21T13:51:02;11.48;;;4.70;;
44508;SDS011;30214;52.246;14.408;2024-02-21T13:53:29;12.75;;;5.20;;
44508;SDS011;30214;52.246;14.408;2024-02-21T13:55:57;16.02;;;5.47;;
44508;SDS011;30214;52.246;14.408;2024-02-21T13:58:26;11.02;;;4.55;;
44508;SDS011;30214;52.246;14.408;2024-02-21T14:00:53;16.13;;;5.47;;
44508;SDS011;30214;52.246;14.408;2024-02-21T14:03:21;13.18;;;5.25;;
44508;SDS011;30214;52.246;14.408;2024-02-21T14:05:48;11.15;;;4.57;;
44508;SDS011;30214;52.246;14.408;2024-02-21T14:08:16;13.45;;;4.93;;
44508;SDS011;30214;52.246;14.408;2024-02-21T14:10:46;12.43;;;5.40;;
44508;SDS011;30214;52.246;14.408;2024-02-21T14:13:16;11.95;;;4.28;;
44508;SDS011;30214;52.246;14.408;2024-02-21T14:15:45;14.20;;;5.40;;
44508;SDS011;30214;52.246;14.408;2024-02-21T14:18:15;21.48;;;12.32;;
44508;SDS011;30214;52.246;14.408;2024-02-21T14:20:42;14.80;;;6.90;;
44508;SDS011;30214;52.246;14.408;2024-02-21T14:23:12;9.77;;;4.72;;
44508;SDS011;30214;52.246;14.408;2024-02-21T14:25:45;13.38;;;5.38;;
44508;SDS011;30214;52.246;14.408;2024-02-21T14:28:12;11.63;;;4.45;;
44508;SDS011;30214;52.246;14.408;2024-02-21T14:30:39;11.27;;;3.97;;